Time;durP1;ratioP1;P1;durP2;ratioP2;P2;SDS_P1;SDS_P2;PMS_P1;PMS_P2;Temp;Humidity;BMP_temperature;BMP_pressure;BME280_temperature;BME280_humidity;BME280_pressure;Samples;Min_cycle;Max_cycle;Signal;HPM_P1;HPM_P2
2024/02/20 00:02:03;;;;;;;22.85;4.50;;;8.10;99.90;;;;;;5103694;28;20139;-69
2024/02/20 00:04:30;;;;;;;16.80;3.88;;;8.10;99.90;;;;;;5105238;28;20044;-69
2024/02/20 00:06:57;;;;;;;17.25;3.67;;;8.10;99.90;;;;;;5098533;28;20047;-69
2024/02/20 00:09:24;;;;;;;21.35;4.85;;;8.10;99.90;;;;;;5099328;28;20483;-69
2024/02/20 00:11:51;;;;;;;20.63;4.05;;;8.10;99.90;;;;;;5089507;28;20040;-69
2024/02/20 00:14:18;;;;;;;16.60;4.22;;;8.10;99.90;;;;;;5103304;28;20059;-68
2024/02/20 00:16:46;;;;;;;16.92;3.78;;;8.10;99.90;;;;;;5102876;28;20052;-69
2024/02/20 00:19:13;;;;;;;26.52;5.45;;;8.10;99.90;;;;;;5102466;28;20058;-69
2024/02/20 00:21:41;;;;;;;13.75;3.38;;;8.10;99.90;;;;;;5103437;28;20129;-69
2024/02/20 00:24:08;;;;;;;25.75;7.07;;;8.10;99.90;;;;;;5083916;28;20503;-69
2024/02/20 00:26:35;;;;;;;20.50;5.00;;;8.00;99.90;;;;;;5081750;28;20079;-70
2024/02/20 00:29:02;;;;;;;33.78;4.65;;;8.00;99.90;;;;;;5084713;28;20048;-69
2024/02/20 00:31:32;;;;;;;23.67;4.25;;;8.00;99.90;;;;;;5087141;28;20050;-69
2024/02/20 00:34:00;;;;;;;14.55;4.10;;;8.00;99.90;;;;;;5108025;28;20044;-70
2024/02/20 00:36:27;;;;;;;12.25;3.45;;;7.90;99.90;;;;;;5109406;28;20475;-69
2024/02/20 00:38:57;;;;;;;21.08;3.75;;;7.90;99.90;;;;;;5106116;28;20054;-69
2024/02/20 00:41:26;;;;;;;17.13;4.18;;;7.90;99.90;;;;;;5108436;28;20096;-68
2024/02/20 00:43:53;;;;;;;23.33;3.95;;;7.90;99.90;;;;;;5102806;28;20047;-69
2024/02/20 00:46:20;;;;;;;18.92;3.78;;;8.00;99.90;;;;;;5089821;28;20484;-69
2024/02/20 00:48:48;;;;;;;18.05;3.67;;;8.00;99.90;;;;;;5108961;28;20521;-69
2024/02/20 00:51:19;;;;;;;18.27;5.25;;;8.00;99.90;;;;;;5090851;28;20050;-67
2024/02/20 00:53:46;;;;;;;16.13;3.47;;;8.00;99.90;;;;;;5108976;28;20056;-67
2024/02/20 00:56:13;;;;;;;17.85;3.75;;;8.10;99.90;;;;;;5107547;28;20116;-67
2024/02/20 00:58:42;;;;;;;17.35;4.00;;;8.10;99.90;;;;;;5108650;28;20047;-67
2024/02/20 01:01:11;;;;;;;24.20;5.82;;;8.10;99.90;;;;;;5084428;28;20044;-68
2024/02/20 01:03:39;;;;;;;13.65;3.53;;;8.10;99.90;;;;;;5107055;28;20048;-68
2024/02/20 01:06:06;;;;;;;19.40;5.53;;;8.00;99.90;;;;;;5096829;28;20044;-68
2024/02/20 01:08:35;;;;;;;21.90;2.95;;;8.00;99.90;;;;;;5108251;28;20075;-68
2024/02/20 01:11:05;;;;;;;20.55;3.63;;;7.90;99.90;;;;;;5102370;28;20052;-68
2024/02/20 01:13:32;;;;;;;20.83;5.70;;;7.90;99.90;;;;;;5107630;28;20247;-69
2024/02/20 01:15:59;;;;;;;22.88;5.63;;;7.90;99.90;;;;;;5107771;28;20196;-70
2024/02/20 01:18:26;;;;;;;26.80;3.92;;;7.90;99.90;;;;;;5108003;28;20104;-68
2024/02/20 01:20:53;;;;;;;17.50;5.85;;;7.90;99.90;;;;;;5103517;28;20082;-68
2024/02/20 01:23:20;;;;;;;16.20;3.95;;;7.90;99.90;;;;;;5103469;28;20040;-69
2024/02/20 01:25:47;;;;;;;26.60;4.65;;;7.90;99.90;;;;;;5107024;28;20058;-69
2024/02/20 01:28:14;;;;;;;18.58;3.97;;;7.90;99.90;;;;;;5109744;28;20108;-68
2024/02/20 01:30:42;;;;;;;16.45;3.80;;;8.00;99.90;;;;;;5103958;28;20128;-68
2024/02/20 01:33:12;;;;;;;23.25;4.25;;;8.00;99.90;;;;;;5108872;28;20048;-68
2024/02/20 01:35:41;;;;;;;20.65;3.20;;;8.00;99.90;;;;;;5107253;28;20052;-68
2024/02/20 01:38:08;;;;;;;17.45;3.65;;;8.10;99.90;;;;;;5106619;28;20050;-68
2024/02/20 01:40:38;;;;;;;20.88;3.67;;;8.10;99.90;;;;;;5103527;28;20043;-67
2024/02/20 01:43:06;;;;;;;24.10;6.10;;;8.10;99.90;;;;;;5107539;28;20043;-67
2024/02/20 01:45:33;;;;;;;19.80;5.13;;;8.00;99.90;;;;;;5110426;28;20063;-68
2024/02/20 01:48:02;;;;;;;23.98;4.60;;;8.00;99.90;;;;;;5111097;28;20101;-69
2024/02/20 01:50:33;;;;;;;18.08;4.45;;;8.00;99.90;;;;;;5109815;28;20126;-68
2024/02/20 01:53:02;;;;;;;28.60;4.40;;;8.00;99.90;;;;;;5090638;28;20043;-69
2024/02/20 01:55:29;;;;;;;19.45;3.83;;;8.00;99.90;;;;;;5105107;28;20047;-69
2024/02/20 01:57:56;;;;;;;17.90;3.60;;;8.10;99.90;;;;;;5086496;28;20052;-68
2024/02/20 02:00:23;;;;;;;34.08;4.78;;;8.10;99.90;;;;;;5085262;28;20060;-67
2024/02/20 02:02:50;;;;;;;24.67;4.43;;;8.10;99.90;;;;;;5084066;28;20515;-69
2024/02/20 02:05:18;;;;;;;25.50;4.55;;;8.20;99.90;;;;;;5085596;28;20052;-68
2024/02/20 02:07:45;;;;;;;18.23;3.72;;;8.30;99.90;;;;;;5086641;28;20075;-68
2024/02/20 02:10:12;;;;;;;20.98;4.03;;;8.30;99.90;;;;;;5086274;28;20140;-69
2024/02/20 02:12:39;;;;;;;27.33;4.05;;;8.30;99.90;;;;;;5065189;28;20066;-68
2024/02/20 02:15:07;;;;;;;16.00;2.60;;;8.30;99.90;;;;;;5079287;28;20052;-68
2024/02/20 02:17:33;;;;;;;22.58;3.55;;;8.20;99.90;;;;;;5084130;28;20104;-68
2024/02/20 02:20:00;;;;;;;14.32;4.05;;;8.20;99.90;;;;;;5080205;28;20052;-68
2024/02/20 02:22:27;;;;;;;24.17;3.95;;;8.10;99.90;;;;;;5082587;28;20040;-67
2024/02/20 02:24:55;;;;;;;21.77;3.95;;;8.10;99.90;;;;;;5085364;28;20033;-68
2024/02/20 02:27:21;;;;;;;24.80;4.30;;;8.00;99.90;;;;;;5086112;28;20051;-67
2024/02/20 02:29:48;;;;;;;21.25;4.53;;;8.00;99.90;;;;;;5085603;28;20040;-67
2024/02/20 02:32:15;;;;;;;17.73;3.53;;;8.00;99.90;;;;;;5085761;28;20546;-68
2024/02/20 02:34:42;;;;;;;23.77;4.93;;;7.90;99.90;;;;;;5087088;28;20101;-69
2024/02/20 02:37:09;;;;;;;27.23;4.50;;;7.90;99.90;;;;;;5084852;28;20052;-68
2024/02/20 02:39:36;;;;;;;24.85;4.07;;;7.90;99.90;;;;;;5084583;28;20046;-68
2024/02/20 02:42:05;;;;;;;16.52;3.83;;;7.90;99.90;;;;;;5085597;28;20050;-67
2024/02/20 02:44:31;;;;;;;26.30;4.85;;;7.90;99.90;;;;;;5075604;28;20055;-68
2024/02/20 02:46:58;;;;;;;19.88;3.85;;;7.90;99.90;;;;;;5075487;28;20040;-68
2024/02/20 02:49:25;;;;;;;33.55;5.07;;;7.90;99.90;;;;;;5083943;28;20575;-68
2024/02/20 02:51:52;;;;;;;23.52;4.90;;;7.90;99.90;;;;;;5085336;28;20119;-68
2024/02/20 02:54:19;;;;;;;27.95;4.75;;;7.90;99.90;;;;;;5059602;28;20067;-69
2024/02/20 02:56:46;;;;;;;30.83;7.03;;;7.90;99.90;;;;;;5083139;28;20055;-67
2024/02/20 02:59:13;;;;;;;27.95;6.20;;;7.80;99.90;;;;;;5105024;28;20056;-69
2024/02/20 03:01:39;;;;;;;24.52;5.75;;;7.90;99.90;;;;;;5106865;28;20101;-68
2024/02/20 03:04:06;;;;;;;33.47;7.00;;;7.80;99.90;;;;;;5086109;28;20036;-68
2024/02/20 03:06:40;;;;;;;25.35;3.90;;;7.80;99.90;;;;;;5104653;28;20055;-69
2024/02/20 03:09:13;;;;;;;19.90;4.45;;;7.90;99.90;;;;;;5105120;28;20047;-69
2024/02/20 03:11:40;;;;;;;35.28;4.22;;;7.90;99.90;;;;;;5105736;28;20043;-69
2024/02/20 03:14:12;;;;;;;27.27;5.25;;;7.90;99.90;;;;;;5083370;28;20108;-69
2024/02/20 03:16:39;;;;;;;20.38;4.50;;;7.90;99.90;;;;;;5105212;28;20051;-69
2024/02/20 03:19:06;;;;;;;30.05;4.47;;;7.80;99.90;;;;;;5102073;28;20046;-69
2024/02/20 03:21:33;;;;;;;21.13;5.53;;;7.80;99.90;;;;;;5082607;28;20052;-69
2024/02/20 03:24:00;;;;;;;27.55;5.53;;;7.80;99.90;;;;;;5105878;28;20090;-69
2024/02/20 03:26:27;;;;;;;31.77;4.57;;;7.80;99.90;;;;;;5097102;28;20039;-68
2024/02/20 03:28:54;;;;;;;26.10;6.22;;;7.80;99.90;;;;;;5105499;28;20086;-69
2024/02/20 03:31:21;;;;;;;33.28;5.15;;;7.80;99.90;;;;;;5101450;28;20052;-69
2024/02/20 03:33:48;;;;;;;30.95;4.18;;;7.80;99.90;;;;;;5105703;28;20051;-68
2024/02/20 03:36:15;;;;;;;25.75;4.25;;;7.80;99.90;;;;;;5075627;28;20043;-68
2024/02/20 03:38:42;;;;;;;19.05;4.03;;;7.80;99.90;;;;;;5095749;28;20035;-69
2024/02/20 03:41:09;;;;;;;19.48;4.63;;;7.80;99.90;;;;;;5103529;28;20054;-68
2024/02/20 03:43:36;;;;;;;20.58;7.03;;;7.80;99.90;;;;;;5104505;28;20051;-68
2024/02/20 03:46:04;;;;;;;27.73;5.20;;;7.80;99.90;;;;;;5101858;28;20089;-68
2024/02/20 03:48:32;;;;;;;23.33;4.72;;;7.80;99.90;;;;;;5098029;28;20058;-67
2024/02/20 03:50:59;;;;;;;21.65;5.05;;;7.80;99.90;;;;;;5102370;28;20062;-68
2024/02/20 03:53:26;;;;;;;30.63;4.20;;;7.70;99.90;;;;;;5096207;28;20092;-68
2024/02/20 03:55:53;;;;;;;20.92;3.92;;;7.70;99.90;;;;;;5101565;28;20044;-69
2024/02/20 03:58:20;;;;;;;16.85;3.63;;;7.70;99.90;;;;;;5104535;28;20051;-67
2024/02/20 04:00:47;;;;;;;22.92;4.97;;;7.70;99.90;;;;;;5101657;28;20109;-68
2024/02/20 04:03:14;;;;;;;23.52;3.90;;;7.70;99.90;;;;;;5093743;28;20120;-68
2024/02/20 04:05:41;;;;;;;22.20;4.45;;;7.60;99.90;;;;;;5099951;28;20046;-68
2024/02/20 04:08:08;;;;;;;40.67;4.93;;;7.60;99.90;;;;;;5100018;28;20048;-68
2024/02/20 04:10:35;;;;;;;23.90;4.90;;;7.60;99.90;;;;;;5104266;28;20043;-68
2024/02/20 04:13:02;;;;;;;30.08;6.35;;;7.60;99.90;;;;;;5102442;28;20044;-68
2024/02/20 04:15:29;;;;;;;33.28;4.53;;;7.60;99.90;;;;;;5086616;28;20044;-68
2024/02/20 04:17:56;;;;;;;17.55;4.20;;;7.60;99.90;;;;;;5105621;28;20389;-68
2024/02/20 04:20:23;;;;;;;27.30;4.78;;;7.60;99.90;;;;;;5103827;28;20078;-68
2024/02/20 04:22:50;;;;;;;18.80;3.72;;;7.60;99.90;;;;;;5096080;28;20181;-68
2024/02/20 04:25:17;;;;;;;27.73;4.57;;;7.60;99.90;;;;;;5101745;28;20653;-69
2024/02/20 04:27:47;;;;;;;30.50;4.55;;;7.60;99.90;;;;;;5104884;28;20048;-68
2024/02/20 04:30:14;;;;;;;25.63;5.32;;;7.60;99.90;;;;;;5101030;28;20468;-69
2024/02/20 04:32:41;;;;;;;16.67;5.15;;;7.60;99.90;;;;;;5096650;28;20044;-68
2024/02/20 04:35:09;;;;;;;31.60;5.03;;;7.60;99.90;;;;;;5099566;28;20146;-69
2024/02/20 04:37:37;;;;;;;24.02;4.47;;;7.60;99.90;;;;;;5102769;28;20046;-68
2024/02/20 04:40:07;;;;;;;31.73;5.35;;;7.60;99.90;;;;;;5097305;28;20079;-68
2024/02/20 04:42:34;;;;;;;27.05;4.53;;;7.60;99.90;;;;;;5092690;28;20079;-67
2024/02/20 04:45:01;;;;;;;28.17;5.57;;;7.50;99.90;;;;;;5089368;28;20062;-68
2024/02/20 04:47:30;;;;;;;37.67;5.85;;;7.50;99.90;;;;;;5082428;28;20067;-68
2024/02/20 04:49:57;;;;;;;30.95;4.28;;;7.50;99.90;;;;;;5097684;28;20048;-68
2024/02/20 04:52:24;;;;;;;37.90;6.53;;;7.50;99.90;;;;;;5100885;28;20127;-67
2024/02/20 04:54:52;;;;;;;25.58;5.15;;;7.50;99.90;;;;;;5102148;28;20065;-68
2024/02/20 04:57:20;;;;;;;34.15;7.43;;;7.40;99.90;;;;;;5081379;28;20051;-69
2024/02/20 04:59:47;;;;;;;31.08;4.00;;;7.50;99.90;;;;;;5099726;28;20436;-68
2024/02/20 05:02:15;;;;;;;17.77;4.05;;;7.40;99.90;;;;;;5104062;28;20051;-68
2024/02/20 05:04:42;;;;;;;23.10;4.20;;;7.40;99.90;;;;;;5095642;28;20492;-68
2024/02/20 05:07:09;;;;;;;31.30;5.88;;;7.40;99.90;;;;;;5105016;28;20036;-67
2024/02/20 05:09:36;;;;;;;44.05;5.53;;;7.50;99.90;;;;;;5099556;28;20093;-68
2024/02/20 05:12:04;;;;;;;34.92;4.70;;;7.40;99.90;;;;;;5102764;28;20073;-68
2024/02/20 05:14:31;;;;;;;34.97;5.40;;;7.40;99.90;;;;;;5104026;28;20048;-69
2024/02/20 05:16:57;;;;;;;34.15;5.43;;;7.40;99.90;;;;;;5099514;28;20108;-68
2024/02/20 05:19:24;;;;;;;26.08;4.28;;;7.40;99.90;;;;;;5108787;28;20084;-68
2024/02/20 05:21:52;;;;;;;39.28;4.68;;;7.40;99.90;;;;;;5099841;28;20042;-69
2024/02/20 05:24:19;;;;;;;30.67;6.28;;;7.40;99.90;;;;;;5108239;28;20039;-68
2024/02/20 05:26:46;;;;;;;40.08;7.40;;;7.40;99.90;;;;;;5105387;28;20048;-67
2024/02/20 05:29:13;;;;;;;23.60;5.25;;;7.40;99.90;;;;;;5072375;28;20101;-67
2024/02/20 05:31:40;;;;;;;29.75;4.70;;;7.40;99.90;;;;;;5107251;28;20048;-67
2024/02/20 05:34:07;;;;;;;22.15;3.88;;;7.40;99.90;;;;;;5106601;28;20058;-68
2024/02/20 05:36:34;;;;;;;26.20;5.53;;;7.40;99.90;;;;;;5108455;28;20052;-68
2024/02/20 05:39:02;;;;;;;34.65;5.97;;;7.40;99.90;;;;;;5107430;28;20123;-68
2024/02/20 05:41:29;;;;;;;33.58;5.28;;;7.40;99.90;;;;;;5105600;28;20052;-68
2024/02/20 05:43:57;;;;;;;28.60;4.10;;;7.40;99.90;;;;;;5107750;28;20077;-68
2024/02/20 05:46:25;;;;;;;35.10;5.38;;;7.40;99.90;;;;;;5102145;28;20093;-68
2024/02/20 05:48:53;;;;;;;36.03;4.95;;;7.40;99.90;;;;;;5107818;28;20199;-67
2024/02/20 05:51:20;;;;;;;23.35;6.05;;;7.40;99.90;;;;;;5104197;28;20105;-69
2024/02/20 05:53:47;;;;;;;26.73;4.60;;;7.40;99.90;;;;;;5079622;28;20496;-68
2024/02/20 05:56:14;;;;;;;24.38;5.00;;;7.40;99.90;;;;;;5102497;28;20136;-68
2024/02/20 05:58:41;;;;;;;26.45;4.97;;;7.40;99.90;;;;;;5107622;28;20192;-68
2024/02/20 06:01:09;;;;;;;35.33;6.13;;;7.40;99.90;;;;;;5103605;28;20039;-67
2024/02/20 06:03:36;;;;;;;30.75;4.70;;;7.40;99.90;;;;;;5102882;28;20051;-67
2024/02/20 06:06:07;;;;;;;32.63;5.70;;;7.30;99.90;;;;;;5082505;28;20044;-69
2024/02/20 06:08:42;;;;;;;44.95;4.95;;;7.30;99.90;;;;;;5106509;28;20237;-69
2024/02/20 06:11:17;;;;;;;32.58;5.38;;;7.30;99.90;;;;;;5085700;28;20105;-67
2024/02/20 06:13:45;;;;;;;27.02;6.00;;;7.20;99.90;;;;;;5102842;28;20142;-68
2024/02/20 06:16:12;;;;;;;27.90;5.90;;;7.20;99.90;;;;;;5085718;28;20183;-68
2024/02/20 06:18:39;;;;;;;23.13;5.15;;;7.20;99.90;;;;;;5086251;28;20048;-69
2024/02/20 06:21:08;;;;;;;43.60;7.78;;;7.20;99.90;;;;;;5105118;28;20131;-69
2024/02/20 06:23:39;;;;;;;31.48;4.60;;;7.20;99.90;;;;;;5102822;28;20443;-69
2024/02/20 06:26:09;;;;;;;31.10;5.32;;;7.10;99.90;;;;;;5100836;28;20052;-68
2024/02/20 06:28:40;;;;;;;24.42;3.75;;;7.10;99.90;;;;;;5105350;28;20075;-68
2024/02/20 06:31:07;;;;;;;37.15;6.25;;;7.10;99.90;;;;;;5105677;28;20065;-68
2024/02/20 06:33:35;;;;;;;33.58;4.72;;;7.10;99.90;;;;;;5100261;28;20500;-68
2024/02/20 06:36:03;;;;;;;38.72;4.78;;;7.20;99.90;;;;;;5104240;28;20050;-69
2024/02/20 06:38:32;;;;;;;30.65;4.82;;;7.20;99.90;;;;;;5096869;28;20040;-68
2024/02/20 06:40:59;;;;;;;29.40;4.55;;;7.20;99.90;;;;;;5083205;28;20135;-68
2024/02/20 06:43:27;;;;;;;37.47;6.40;;;7.10;99.90;;;;;;5098766;28;20105;-68
2024/02/20 06:45:54;;;;;;;22.42;4.70;;;7.10;99.90;;;;;;5096833;28;20040;-67
2024/02/20 06:48:21;;;;;;;33.20;5.75;;;7.10;99.90;;;;;;5103889;28;20039;-67
2024/02/20 06:50:48;;;;;;;28.95;4.93;;;7.10;99.90;;;;;;5085846;28;20101;-68
2024/02/20 06:53:15;;;;;;;16.88;4.18;;;7.10;99.90;;;;;;5088030;28;20075;-67
2024/02/20 06:55:42;;;;;;;28.15;6.53;;;7.10;99.90;;;;;;5104735;28;20059;-68
2024/02/20 06:58:09;;;;;;;27.25;5.82;;;7.00;99.90;;;;;;5101297;28;20047;-67
2024/02/20 07:00:37;;;;;;;26.42;4.60;;;7.10;99.90;;;;;;5102779;28;20331;-67
2024/02/20 07:03:06;;;;;;;33.85;4.57;;;7.00;99.90;;;;;;5103903;28;20051;-68
2024/02/20 07:05:32;;;;;;;31.73;5.38;;;7.00;99.90;;;;;;5105025;28;20048;-67
2024/02/20 07:08:00;;;;;;;33.42;5.55;;;6.90;99.90;;;;;;5105806;28;20119;-67
2024/02/20 07:10:27;;;;;;;32.20;4.78;;;7.00;99.90;;;;;;5105832;28;20043;-68
2024/02/20 07:12:55;;;;;;;20.35;4.68;;;6.90;99.90;;;;;;5103286;28;20060;-69
2024/02/20 07:15:23;;;;;;;32.00;7.68;;;6.90;99.90;;;;;;5069018;28;20046;-70
2024/02/20 07:17:50;;;;;;;40.10;7.65;;;6.90;99.90;;;;;;5105679;28;20102;-68
2024/02/20 07:20:17;;;;;;;30.60;6.10;;;6.90;99.90;;;;;;5100499;28;20105;-68
2024/02/20 07:22:44;;;;;;;23.23;4.85;;;7.00;99.90;;;;;;5101885;28;20048;-69
2024/02/20 07:25:19;;;;;;;27.20;5.07;;;7.00;99.90;;;;;;5100907;28;20043;-68
2024/02/20 07:27:46;;;;;;;17.65;4.55;;;7.00;99.90;;;;;;5093064;28;20335;-69
2024/02/20 07:30:13;;;;;;;29.00;5.03;;;7.00;99.90;;;;;;5097713;28;20051;-68
2024/02/20 07:32:41;;;;;;;33.00;6.15;;;7.00;99.90;;;;;;5093474;28;20058;-68
2024/02/20 07:35:12;;;;;;;26.48;5.93;;;7.00;99.90;;;;;;5080967;28;20359;-67
2024/02/20 07:37:40;;;;;;;29.38;4.60;;;7.00;99.90;;;;;;5095192;28;20541;-67
2024/02/20 07:40:11;;;;;;;30.02;5.78;;;7.00;99.90;;;;;;5103468;28;20058;-66
2024/02/20 07:42:39;;;;;;;30.00;7.30;;;7.00;99.90;;;;;;5091845;28;20127;-67
2024/02/20 07:45:07;;;;;;;25.85;5.10;;;7.10;99.90;;;;;;5082864;28;20480;-67
2024/02/20 07:47:34;;;;;;;20.15;5.47;;;7.10;99.90;;;;;;5098030;28;20047;-67
2024/02/20 07:50:03;;;;;;;28.23;4.53;;;7.10;99.90;;;;;;5098950;28;20554;-69
2024/02/20 07:52:31;;;;;;;24.45;4.95;;;7.10;99.90;;;;;;5105585;28;20040;-68
2024/02/20 07:54:58;;;;;;;25.42;4.90;;;7.10;99.90;;;;;;5102384;28;20048;-69
2024/02/20 07:57:25;;;;;;;24.23;5.18;;;7.20;99.90;;;;;;5104555;28;20083;-67
2024/02/20 07:59:53;;;;;;;21.60;5.53;;;7.30;99.90;;;;;;5102790;28;20313;-68
2024/02/20 08:02:20;;;;;;;27.95;5.32;;;7.30;99.90;;;;;;5104347;28;20048;-68
2024/02/20 08:04:47;;;;;;;18.38;3.75;;;7.40;99.90;;;;;;5101626;28;20035;-68
2024/02/20 08:07:14;;;;;;;26.17;5.00;;;7.40;99.90;;;;;;5103319;28;20047;-68
2024/02/20 08:09:41;;;;;;;30.20;4.43;;;7.40;99.90;;;;;;5097867;28;20090;-68
2024/02/20 08:12:08;;;;;;;20.63;6.90;;;7.40;99.90;;;;;;5091829;28;20051;-67
2024/02/20 08:14:35;;;;;;;26.15;5.53;;;7.50;99.90;;;;;;5103414;28;20077;-66
2024/02/20 08:17:02;;;;;;;19.48;4.43;;;7.50;99.90;;;;;;5099403;28;20484;-66
2024/02/20 08:19:29;;;;;;;25.67;4.85;;;7.50;99.90;;;;;;5102445;28;20051;-67
2024/02/20 08:21:56;;;;;;;29.73;6.28;;;7.50;99.90;;;;;;5103676;28;20047;-67
2024/02/20 08:24:23;;;;;;;27.23;5.55;;;7.50;99.90;;;;;;5104931;28;20043;-68
2024/02/20 08:26:50;;;;;;;34.15;7.28;;;7.60;99.90;;;;;;5103328;28;20074;-67
2024/02/20 08:29:16;;;;;;;28.15;5.95;;;7.60;99.90;;;;;;5104362;28;20100;-69
2024/02/20 08:31:43;;;;;;;31.23;6.10;;;7.70;99.90;;;;;;5082857;28;20143;-67
2024/02/20 08:34:10;;;;;;;18.83;4.32;;;7.80;99.90;;;;;;5085051;28;20583;-68
2024/02/20 08:36:39;;;;;;;24.60;3.80;;;7.80;99.90;;;;;;5079354;28;20044;-66
2024/02/20 08:39:06;;;;;;;28.73;4.50;;;7.90;99.90;;;;;;5096298;28;20446;-67
2024/02/20 08:41:34;;;;;;;25.52;3.67;;;7.90;99.90;;;;;;5102217;28;20039;-69
2024/02/20 08:44:01;;;;;;;20.50;5.50;;;8.00;99.90;;;;;;5095423;28;20043;-66
2024/02/20 08:46:31;;;;;;;26.15;4.22;;;8.00;99.90;;;;;;5085959;28;20051;-66
2024/02/20 08:48:58;;;;;;;26.30;4.28;;;8.10;99.90;;;;;;5102871;28;20134;-67
2024/02/20 08:51:26;;;;;;;22.73;4.38;;;8.10;99.90;;;;;;5105039;28;20066;-67
2024/02/20 08:53:53;;;;;;;26.33;4.28;;;8.20;99.90;;;;;;5103939;28;20043;-67
2024/02/20 08:56:21;;;;;;;30.13;5.57;;;8.20;99.90;;;;;;5098599;28;20055;-66
2024/02/20 08:58:51;;;;;;;23.42;5.53;;;8.20;99.90;;;;;;5108511;28;20051;-66
2024/02/20 09:01:19;;;;;;;27.83;5.47;;;8.20;99.90;;;;;;5090382;28;20047;-66
2024/02/20 09:03:47;;;;;;;24.02;4.32;;;8.30;99.90;;;;;;5108499;28;20050;-66
2024/02/20 09:06:14;;;;;;;33.35;7.22;;;8.30;99.90;;;;;;5102408;28;20588;-66
2024/02/20 09:08:41;;;;;;;24.70;5.18;;;8.30;99.90;;;;;;5108059;28;20044;-67
2024/02/20 09:11:08;;;;;;;15.18;4.80;;;8.20;99.90;;;;;;5104424;28;20048;-67
2024/02/20 09:13:35;;;;;;;32.90;6.28;;;8.20;99.90;;;;;;5108097;28;20047;-67
2024/02/20 09:16:03;;;;;;;19.33;4.78;;;8.20;99.90;;;;;;5107516;28;20127;-66
2024/02/20 09:18:34;;;;;;;23.85;4.85;;;8.20;99.90;;;;;;5107791;28;20143;-66
2024/02/20 09:21:02;;;;;;;21.88;4.80;;;8.30;99.90;;;;;;5108811;28;20047;-66
2024/02/20 09:23:29;;;;;;;23.50;4.97;;;8.30;99.90;;;;;;5106802;28;20447;-66
2024/02/20 09:25:56;;;;;;;27.05;5.53;;;8.30;99.90;;;;;;5104868;28;20519;-66
2024/02/20 09:28:23;;;;;;;26.13;4.97;;;8.40;99.90;;;;;;5099842;28;20044;-66
2024/02/20 09:30:50;;;;;;;24.33;5.05;;;8.40;99.90;;;;;;5103230;28;20040;-67
2024/02/20 09:33:18;;;;;;;28.48;5.53;;;8.50;99.90;;;;;;5104916;28;20046;-67
2024/02/20 09:35:45;;;;;;;22.25;4.30;;;8.50;99.90;;;;;;5084569;28;20090;-67
2024/02/20 09:38:15;;;;;;;23.52;4.80;;;8.50;99.90;;;;;;5104221;28;20109;-68
2024/02/20 09:40:43;;;;;;;25.83;6.70;;;8.60;99.90;;;;;;5094581;28;20818;-68
2024/02/20 09:43:09;;;;;;;26.90;4.68;;;8.70;99.90;;;;;;5106771;28;20054;-68
2024/02/20 09:45:39;;;;;;;21.65;4.97;;;8.80;99.90;;;;;;5104713;28;20082;-66
2024/02/20 09:48:07;;;;;;;19.52;4.63;;;8.80;99.90;;;;;;5088214;28;20143;-67
2024/02/20 09:50:36;;;;;;;27.77;8.77;;;8.80;99.90;;;;;;5089549;28;20508;-67
2024/02/20 09:53:03;;;;;;;20.35;4.32;;;8.90;99.90;;;;;;5089035;28;20055;-66
2024/02/20 09:55:30;;;;;;;31.27;5.80;;;8.90;99.90;;;;;;5108188;28;20412;-66
2024/02/20 09:57:57;;;;;;;23.27;5.75;;;8.90;99.90;;;;;;5084433;28;20279;-66
2024/02/20 10:00:25;;;;;;;23.95;5.03;;;9.00;99.90;;;;;;5087479;28;20075;-66
2024/02/20 10:02:52;;;;;;;20.77;3.95;;;9.00;99.90;;;;;;5102769;28;20400;-66
2024/02/20 10:05:19;;;;;;;24.95;3.80;;;9.10;99.90;;;;;;5088785;28;20093;-66
2024/02/20 10:07:46;;;;;;;25.25;4.68;;;9.20;99.90;;;;;;5102601;28;20054;-66
2024/02/20 10:10:16;;;;;;;27.55;4.68;;;9.30;99.90;;;;;;5106411;28;20044;-66
2024/02/20 10:12:44;;;;;;;30.48;5.00;;;9.30;99.90;;;;;;5105995;28;20051;-66
2024/02/20 10:15:13;;;;;;;33.42;4.43;;;9.40;99.90;;;;;;5084510;28;20047;-66
2024/02/20 10:17:40;;;;;;;28.95;5.18;;;9.40;99.90;;;;;;5088960;28;20141;-66
2024/02/20 10:20:13;;;;;;;25.08;4.90;;;9.50;99.90;;;;;;5098007;28;20073;-67
2024/02/20 10:22:41;;;;;;;27.75;4.88;;;9.40;99.90;;;;;;5106763;28;20043;-66
2024/02/20 10:25:13;;;;;;;24.27;4.63;;;9.40;99.90;;;;;;5105571;28;20078;-67
2024/02/20 10:27:41;;;;;;;23.17;5.32;;;9.40;99.90;;;;;;5087852;28;20127;-67
2024/02/20 10:30:08;;;;;;;37.28;6.53;;;9.40;99.90;;;;;;5105636;28;20050;-67
2024/02/20 10:32:39;;;;;;;25.70;6.50;;;9.40;99.90;;;;;;5107360;28;20074;-67
2024/02/20 10:35:07;;;;;;;28.13;4.80;;;9.40;99.90;;;;;;5084032;28;20134;-66
2024/02/20 10:37:35;;;;;;;31.48;6.95;;;9.40;99.90;;;;;;5107042;28;20150;-66
2024/02/20 10:40:09;;;;;;;34.15;5.47;;;9.40;99.90;;;;;;5096098;28;20210;-68
2024/02/20 10:42:53;;;;;;;21.70;4.80;;;9.50;99.90;;;;;;5097644;28;20050;-67
2024/02/20 10:45:21;;;;;;;25.58;7.20;;;9.60;99.90;;;;;;5098029;28;20104;-67
2024/02/20 10:47:50;;;;;;;26.95;5.25;;;9.70;99.90;;;;;;5071498;28;20180;-67
2024/02/20 10:50:18;;;;;;;24.85;5.97;;;9.70;99.90;;;;;;5099499;28;20538;-67
2024/02/20 10:52:45;;;;;;;24.60;5.88;;;9.80;99.90;;;;;;5105851;28;20053;-68
2024/02/20 10:55:12;;;;;;;42.72;5.35;;;9.80;99.90;;;;;;5099018;28;20226;-66
2024/02/20 10:58:00;;;;;;;21.00;4.85;;;9.90;99.90;;;;;;5104624;28;20602;-67
2024/02/20 11:00:31;;;;;;;18.83;4.38;;;9.80;99.90;;;;;;5106581;28;20046;-66
2024/02/20 11:02:58;;;;;;;21.83;4.53;;;9.80;99.90;;;;;;5087254;28;20120;-67
2024/02/20 11:05:26;;;;;;;23.10;4.25;;;9.90;99.90;;;;;;5105985;28;20499;-67
2024/02/20 11:08:03;;;;;;;24.13;6.07;;;9.90;99.90;;;;;;5104934;28;20048;-67
2024/02/20 11:10:30;;;;;;;18.75;4.47;;;9.80;99.90;;;;;;5067301;28;20051;-66
2024/02/20 11:12:57;;;;;;;22.17;4.07;;;9.80;99.90;;;;;;5088003;28;20155;-67
2024/02/20 11:15:26;;;;;;;17.85;5.28;;;9.80;99.90;;;;;;5103954;28;20066;-67
2024/02/20 11:17:53;;;;;;;21.65;3.95;;;9.90;99.90;;;;;;5107277;28;20423;-68
2024/02/20 11:20:23;;;;;;;24.55;4.60;;;10.00;99.90;;;;;;5100637;28;20040;-68
2024/02/20 11:22:50;;;;;;;20.30;4.50;;;10.20;99.90;;;;;;5095461;28;20079;-67
2024/02/20 11:25:20;;;;;;;19.33;5.70;;;10.10;99.90;;;;;;5099786;28;20058;-67
2024/02/20 11:27:47;;;;;;;20.13;3.88;;;10.10;99.90;;;;;;5099853;28;20607;-67
2024/02/20 11:30:25;;;;;;;17.15;3.17;;;10.10;99.90;;;;;;5103094;28;20056;-67
2024/02/20 11:32:54;;;;;;;10.88;3.50;;;10.10;99.90;;;;;;5104650;28;20459;-68
2024/02/20 11:35:32;;;;;;;16.80;3.63;;;10.10;99.90;;;;;;5081705;28;20959;-68
2024/02/20 11:38:04;;;;;;;21.05;3.72;;;10.10;99.90;;;;;;5100907;28;20048;-67
2024/02/20 11:40:34;;;;;;;18.23;3.35;;;10.10;99.90;;;;;;5106264;28;20054;-67
2024/02/20 11:43:06;;;;;;;17.23;3.25;;;10.20;99.90;;;;;;5107045;28;20077;-68
2024/02/20 11:45:33;;;;;;;18.73;4.20;;;10.20;99.90;;;;;;5105982;28;20040;-66
2024/02/20 11:48:08;;;;;;;14.13;4.03;;;10.30;99.90;;;;;;5094528;28;20052;-66
2024/02/20 11:50:40;;;;;;;10.05;3.25;;;10.30;99.90;;;;;;5097859;28;20484;-68
2024/02/20 11:53:16;;;;;;;12.27;4.10;;;10.30;99.90;;;;;;5087799;28;20048;-66
2024/02/20 11:55:57;;;;;;;16.27;4.20;;;10.30;99.90;;;;;;5100458;28;20052;-65
2024/02/20 11:58:24;;;;;;;19.77;4.07;;;10.40;99.90;;;;;;5103032;28;20602;-68
2024/02/20 12:01:01;;;;;;;13.25;3.17;;;10.30;99.90;;;;;;5088437;28;20055;-69
2024/02/20 12:03:30;;;;;;;12.70;3.35;;;10.40;99.90;;;;;;5087618;28;20408;-67
2024/02/20 12:06:04;;;;;;;6.47;1.92;;;10.50;99.90;;;;;;5101583;28;20052;-67
2024/02/20 12:08:39;;;;;;;5.78;2.50;;;10.50;99.90;;;;;;5104804;28;20092;-67
2024/02/20 12:11:11;;;;;;;8.40;2.17;;;10.50;99.90;;;;;;5104403;28;20074;-66
2024/02/20 12:13:39;;;;;;;11.50;4.05;;;10.60;99.90;;;;;;5095057;28;20048;-68
2024/02/20 12:16:16;;;;;;;7.50;1.85;;;10.60;99.90;;;;;;5105231;28;20048;-66
2024/02/20 12:18:46;;;;;;;3.05;1.90;;;10.80;99.90;;;;;;5095261;28;20147;-67
2024/02/20 12:21:13;;;;;;;5.53;2.22;;;10.80;99.90;;;;;;5094365;28;20488;-67
2024/02/20 12:23:40;;;;;;;8.13;2.28;;;10.80;99.90;;;;;;5085600;28;20055;-66
2024/02/20 12:26:08;;;;;;;5.60;2.20;;;10.90;99.90;;;;;;5104320;28;20040;-67
2024/02/20 12:28:35;;;;;;;5.70;1.67;;;10.90;99.90;;;;;;5105481;28;20044;-67
2024/02/20 12:31:04;;;;;;;10.05;2.05;;;11.00;99.90;;;;;;5109422;28;20220;-69
2024/02/20 12:33:34;;;;;;;6.63;1.73;;;10.90;99.90;;;;;;5103339;28;20075;-66
2024/02/20 12:36:02;;;;;;;2.97;1.13;;;11.00;99.90;;;;;;5096937;28;20134;-67
2024/02/20 12:38:29;;;;;;;4.70;1.42;;;11.00;99.90;;;;;;5104272;28;20047;-67
2024/02/20 12:40:56;;;;;;;4.22;1.98;;;11.00;99.90;;;;;;5104065;28;20043;-67
2024/02/20 12:43:23;;;;;;;6.47;1.55;;;11.10;99.90;;;;;;5088700;28;20979;-67
2024/02/20 12:45:51;;;;;;;2.28;1.08;;;11.10;99.90;;;;;;5108981;28;20043;-67
2024/02/20 12:48:18;;;;;;;1.67;0.70;;;11.10;99.90;;;;;;5087222;28;20055;-67
2024/02/20 12:50:45;;;;;;;7.10;1.50;;;11.10;99.90;;;;;;5109870;28;20156;-67